sensor_id;sensor_type;location;lat;lon;timestamp;temperature;humidity
19279;DHT22;9773;47.062;15.446;2024-03-02T00:00:37;9.10;99.90
19279;DHT22;9773;47.062;15.446;2024-03-02T00:03:04;9.10;99.90
19279;DHT22;9773;47.062;15.446;2024-03-02T00:05:30;9.10;99.90
19279;DHT22;9773;47.062;15.446;2024-03-02T00:07:57;9.00;99.90
19279;DHT22;9773;47.062;15.446;2024-03-02T00:10:25;9.00;99.90
19279;DHT22;9773;47.062;15.446;2024-03-02T00:12:58;9.10;99.90
19279;DHT22;9773;47.062;15.446;2024-03-02T00:18:04;9.10;99.90
19279;DHT22;9773;47.062;15.446;2024-03-02T00:20:31;9.20;99.90
19279;DHT22;9773;47.062;15.446;2024-03-02T00:23:04;9.20;99.90
19279;DHT22;9773;47.062;15.446;2024-03-02T00:25:44;9.30;99.90
19279;DHT22;9773;47.062;15.446;2024-03-02T00:28:21;9.30;99.90
19279;DHT22;9773;47.062;15.446;2024-03-02T00:30:51;9.30;99.90
19279;DHT22;9773;47.062;15.446;2024-03-02T00:33:20;9.20;99.90
19279;DHT22;9773;47.062;15.446;2024-03-02T00:35:47;9.20;99.90
19279;DHT22;9773;47.062;15.446;2024-03-02T00:38:14;9.30;99.90
19279;DHT22;9773;47.062;15.446;2024-03-02T00:40:43;9.20;99.90
19279;DHT22;9773;47.062;15.446;2024-03-02T00:46:00;9.20;99.90
19279;DHT22;9773;47.062;15.446;2024-03-02T00:48:26;9.20;99.90
19279;DHT22;9773;47.062;15.446;2024-03-02T00:50:55;9.20;99.90
19279;DHT22;9773;47.062;15.446;2024-03-02T00:53:26;9.20;99.90
19279;DHT22;9773;47.062;15.446;2024-03-02T00:55:52;9.20;99.90
19279;DHT22;9773;47.062;15.446;2024-03-02T00:58:18;9.20;99.90
19279;DHT22;9773;47.062;15.446;2024-03-02T01:00:44;9.20;99.90
19279;DHT22;9773;47.062;15.446;2024-03-02T01:03:09;9.20;99.90
19279;DHT22;9773;47.062;15.446;2024-03-02T01:05:36;9.10;99.90
19279;DHT22;9773;47.062;15.446;2024-03-02T01:08:02;9.10;99.90
19279;DHT22;9773;47.062;15.446;2024-03-02T01:10:28;9.20;99.90
19279;DHT22;9773;47.062;15.446;2024-03-02T01:12:53;9.10;99.90
19279;DHT22;9773;47.062;15.446;2024-03-02T01:15:19;9.10;99.90
19279;DHT22;9773;47.062;15.446;2024-03-02T01:17:45;9.10;99.90
19279;DHT22;9773;47.062;15.446;2024-03-02T01:20:11;9.10;99.90
19279;DHT22;9773;47.062;15.446;2024-03-02T01:22:37;9.10;99.90
19279;DHT22;9773;47.062;15.446;2024-03-02T01:25:03;9.10;99.90
19279;DHT22;9773;47.062;15.446;2024-03-02T01:27:29;9.20;99.90
19279;DHT22;9773;47.062;15.446;2024-03-02T01:29:55;9.00;99.90
19279;DHT22;9773;47.062;15.446;2024-03-02T01:32:20;9.00;99.90
19279;DHT22;9773;47.062;15.446;2024-03-02T01:34:47;8.80;99.90
19279;DHT22;9773;47.062;15.446;2024-03-02T01:37:13;8.80;99.90
19279;DHT22;9773;47.062;15.446;2024-03-02T01:39:39;8.80;99.90
19279;DHT22;9773;47.062;15.446;2024-03-02T01:42:05;8.80;99.90
19279;DHT22;9773;47.062;15.446;2024-03-02T01:44:30;8.80;99.90
19279;DHT22;9773;47.062;15.446;2024-03-02T01:46:56;8.80;99.90
19279;DHT22;9773;47.062;15.446;2024-03-02T01:49:22;8.90;99.90
19279;DHT22;9773;47.062;15.446;2024-03-02T01:51:48;9.00;99.90
19279;DHT22;9773;47.062;15.446;2024-03-02T01:54:13;9.00;99.90
19279;DHT22;9773;47.062;15.446;2024-03-02T01:56:39;9.10;99.90
19279;DHT22;9773;47.062;15.446;2024-03-02T01:59:05;9.00;99.90
19279;DHT22;9773;47.062;15.446;2024-03-02T02:01:32;8.90;99.90
19279;DHT22;9773;47.062;15.446;2024-03-02T02:03:58;8.90;99.90
19279;DHT22;9773;47.062;15.446;2024-03-02T02:06:24;8.80;99.90
19279;DHT22;9773;47.062;15.446;2024-03-02T02:08:49;8.80;99.90
19279;DHT22;9773;47.062;15.446;2024-03-02T02:11:16;8.90;99.90
19279;DHT22;9773;47.062;15.446;2024-03-02T02:13:41;9.00;99.90
19279;DHT22;9773;47.062;15.446;2024-03-02T02:16:08;9.00;99.90
19279;DHT22;9773;47.062;15.446;2024-03-02T02:18:34;9.00;99.90
19279;DHT22;9773;47.062;15.446;2024-03-02T02:21:00;9.00;99.90
19279;DHT22;9773;47.062;15.446;2024-03-02T02:23:26;8.90;99.90
19279;DHT22;9773;47.062;15.446;2024-03-02T02:25:52;9.00;99.90
19279;DHT22;9773;47.062;15.446;2024-03-02T02:28:17;9.00;99.90
19279;DHT22;9773;47.062;15.446;2024-03-02T02:30:43;8.90;99.90
19279;DHT22;9773;47.062;15.446;2024-03-02T02:33:09;8.60;99.90
19279;DHT22;9773;47.062;15.446;2024-03-02T02:35:35;8.60;99.90
19279;DHT22;9773;47.062;15.446;2024-03-02T02:38:01;8.40;99.90
19279;DHT22;9773;47.062;15.446;2024-03-02T02:40:28;8.30;99.90
19279;DHT22;9773;47.062;15.446;2024-03-02T02:42:57;8.40;99.90
19279;DHT22;9773;47.062;15.446;2024-03-02T02:45:24;8.40;99.90
19279;DHT22;9773;47.062;15.446;2024-03-02T02:47:50;8.50;99.90
19279;DHT22;9773;47.062;15.446;2024-03-02T02:50:16;8.50;99.90
19279;DHT22;9773;47.062;15.446;2024-03-02T02:52:43;8.50;99.90
19279;DHT22;9773;47.062;15.446;2024-03-02T02:55:10;8.40;99.90
19279;DHT22;9773;47.062;15.446;2024-03-02T02:57:38;8.40;99.90
19279;DHT22;9773;47.062;15.446;2024-03-02T03:00:09;8.40;99.90
19279;DHT22;9773;47.062;15.446;2024-03-02T03:02:39;8.40;99.90
19279;DHT22;9773;47.062;15.446;2024-03-02T03:05:07;8.30;99.90
19279;DHT22;9773;47.062;15.446;2024-03-02T03:07:34;8.20;99.90
19279;DHT22;9773;47.062;15.446;2024-03-02T03:10:03;8.40;99.90
19279;DHT22;9773;47.062;15.446;2024-03-02T03:12:30;8.30;99.90
19279;DHT22;9773;47.062;15.446;2024-03-02T03:14:57;8.40;99.90
19279;DHT22;9773;47.062;15.446;2024-03-02T03:17:23;8.50;99.90
19279;DHT22;9773;47.062;15.446;2024-03-02T03:19:49;8.40;99.90
19279;DHT22;9773;47.062;15.446;2024-03-02T03:22:15;8.30;99.90
19279;DHT22;9773;47.062;15.446;2024-03-02T03:24:41;8.40;99.90
19279;DHT22;9773;47.062;15.446;2024-03-02T03:27:07;8.40;99.90
19279;DHT22;9773;47.062;15.446;2024-03-02T03:29:32;8.50;99.90
19279;DHT22;9773;47.062;15.446;2024-03-02T03:31:58;8.60;99.90
19279;DHT22;9773;47.062;15.446;2024-03-02T03:34:24;8.60;99.90
19279;DHT22;9773;47.062;15.446;2024-03-02T03:36:53;8.60;99.90
19279;DHT22;9773;47.062;15.446;2024-03-02T03:39:19;8.40;99.90
19279;DHT22;9773;47.062;15.446;2024-03-02T03:41:44;8.50;99.90
19279;DHT22;9773;47.062;15.446;2024-03-02T03:44:10;8.60;99.90
19279;DHT22;9773;47.062;15.446;2024-03-02T03:46:36;9.20;99.90
19279;DHT22;9773;47.062;15.446;2024-03-02T03:49:02;8.60;99.90
19279;DHT22;9773;47.062;15.446;2024-03-02T03:51:29;8.70;99.90
19279;DHT22;9773;47.062;15.446;2024-03-02T03:53:56;8.80;99.90
19279;DHT22;9773;47.062;15.446;2024-03-02T03:56:21;8.80;99.90
19279;DHT22;9773;47.062;15.446;2024-03-02T03:58:47;8.80;99.90
19279;DHT22;9773;47.062;15.446;2024-03-02T04:01:13;8.70;99.90
19279;DHT22;9773;47.062;15.446;2024-03-02T04:03:39;8.70;99.90
19279;DHT22;9773;47.062;15.446;2024-03-02T04:06:04;8.60;99.90
19279;DHT22;9773;47.062;15.446;2024-03-02T04:08:30;8.70;99.90
19279;DHT22;9773;47.062;15.446;2024-03-02T04:10:56;8.60;99.90
19279;DHT22;9773;47.062;15.446;2024-03-02T04:13:22;8.60;99.90
19279;DHT22;9773;47.062;15.446;2024-03-02T04:15:48;8.60;99.90
19279;DHT22;9773;47.062;15.446;2024-03-02T04:18:13;8.50;99.90
19279;DHT22;9773;47.062;15.446;2024-03-02T04:20:39;8.30;99.90
19279;DHT22;9773;47.062;15.446;2024-03-02T04:23:05;8.20;99.90
19279;DHT22;9773;47.062;15.446;2024-03-02T04:25:32;8.30;99.90
19279;DHT22;9773;47.062;15.446;2024-03-02T04:27:57;8.40;99.90
19279;DHT22;9773;47.062;15.446;2024-03-02T04:30:23;8.40;99.90
19279;DHT22;9773;47.062;15.446;2024-03-02T04:32:50;8.20;99.90
19279;DHT22;9773;47.062;15.446;2024-03-02T04:35:16;8.30;99.90
19279;DHT22;9773;47.062;15.446;2024-03-02T04:37:42;8.30;99.90
19279;DHT22;9773;47.062;15.446;2024-03-02T04:40:08;8.30;99.90
19279;DHT22;9773;47.062;15.446;2024-03-02T04:42:35;8.30;99.90
19279;DHT22;9773;47.062;15.446;2024-03-02T04:45:01;8.30;99.90
19279;DHT22;9773;47.062;15.446;2024-03-02T04:47:27;8.30;99.90
19279;DHT22;9773;47.062;15.446;2024-03-02T04:49:52;8.30;99.90
19279;DHT22;9773;47.062;15.446;2024-03-02T04:52:18;8.30;99.90
19279;DHT22;9773;47.062;15.446;2024-03-02T04:54:44;8.30;99.90
19279;DHT22;9773;47.062;15.446;2024-03-02T04:57:29;8.20;99.90
19279;DHT22;9773;47.062;15.446;2024-03-02T04:59:54;8.20;99.90
19279;DHT22;9773;47.062;15.446;2024-03-02T05:02:20;8.30;99.90
19279;DHT22;9773;47.062;15.446;2024-03-02T05:04:46;8.30;99.90
19279;DHT22;9773;47.062;15.446;2024-03-02T05:07:13;8.20;99.90
19279;DHT22;9773;47.062;15.446;2024-03-02T05:09:39;8.20;99.90
19279;DHT22;9773;47.062;15.446;2024-03-02T05:12:05;8.30;99.90
19279;DHT22;9773;47.062;15.446;2024-03-02T05:14:49;8.30;99.90
19279;DHT22;9773;47.062;15.446;2024-03-02T05:17:15;8.30;99.90
19279;DHT22;9773;47.062;15.446;2024-03-02T05:19:41;8.30;99.90
19279;DHT22;9773;47.062;15.446;2024-03-02T05:22:06;8.30;99.90
19279;DHT22;9773;47.062;15.446;2024-03-02T05:24:32;8.10;99.90
19279;DHT22;9773;47.062;15.446;2024-03-02T05:26:58;8.10;99.90
19279;DHT22;9773;47.062;15.446;2024-03-02T05:29:24;8.00;99.90
19279;DHT22;9773;47.062;15.446;2024-03-02T05:31:49;8.00;99.90
19279;DHT22;9773;47.062;15.446;2024-03-02T05:34:15;8.00;99.90
19279;DHT22;9773;47.062;15.446;2024-03-02T05:36:41;8.00;99.90
19279;DHT22;9773;47.062;15.446;2024-03-02T05:39:07;8.00;99.90
19279;DHT22;9773;47.062;15.446;2024-03-02T05:41:35;8.00;99.90
19279;DHT22;9773;47.062;15.446;2024-03-02T05:44:01;8.00;99.90
19279;DHT22;9773;47.062;15.446;2024-03-02T05:46:27;8.00;99.90
19279;DHT22;9773;47.062;15.446;2024-03-02T05:48:53;7.90;99.90
19279;DHT22;9773;47.062;15.446;2024-03-02T05:51:19;7.90;99.90
19279;DHT22;9773;47.062;15.446;2024-03-02T05:53:45;8.00;99.90
19279;DHT22;9773;47.062;15.446;2024-03-02T05:56:10;8.00;99.90
19279;DHT22;9773;47.062;15.446;2024-03-02T05:58:37;8.00;99.90
19279;DHT22;9773;47.062;15.446;2024-03-02T06:01:18;8.10;99.90
19279;DHT22;9773;47.062;15.446;2024-03-02T06:03:44;8.20;99.90
19279;DHT22;9773;47.062;15.446;2024-03-02T06:06:10;8.20;99.90
19279;DHT22;9773;47.062;15.446;2024-03-02T06:08:36;8.30;99.90
19279;DHT22;9773;47.062;15.446;2024-03-02T06:11:02;8.30;99.90
19279;DHT22;9773;47.062;15.446;2024-03-02T06:13:27;8.20;99.90
19279;DHT22;9773;47.062;15.446;2024-03-02T06:15:53;8.20;99.90
19279;DHT22;9773;47.062;15.446;2024-03-02T06:18:19;8.10;99.90
19279;DHT22;9773;47.062;15.446;2024-03-02T06:20:45;8.10;99.90
19279;DHT22;9773;47.062;15.446;2024-03-02T06:23:10;8.00;99.90
19279;DHT22;9773;47.062;15.446;2024-03-02T06:25:36;7.90;99.90
19279;DHT22;9773;47.062;15.446;2024-03-02T06:28:02;7.90;99.90
19279;DHT22;9773;47.062;15.446;2024-03-02T06:30:28;8.00;99.90
19279;DHT22;9773;47.062;15.446;2024-03-02T06:32:53;8.00;99.90
19279;DHT22;9773;47.062;15.446;2024-03-02T06:35:19;8.10;99.90
19279;DHT22;9773;47.062;15.446;2024-03-02T06:37:45;8.20;99.90
19279;DHT22;9773;47.062;15.446;2024-03-02T06:40:11;8.20;99.90
19279;DHT22;9773;47.062;15.446;2024-03-02T06:42:36;8.30;99.90
19279;DHT22;9773;47.062;15.446;2024-03-02T06:45:03;8.40;99.90
19279;DHT22;9773;47.062;15.446;2024-03-02T06:47:29;8.40;99.90
19279;DHT22;9773;47.062;15.446;2024-03-02T06:49:55;8.30;99.90
19279;DHT22;9773;47.062;15.446;2024-03-02T06:52:22;8.30;99.90
19279;DHT22;9773;47.062;15.446;2024-03-02T06:54:48;8.40;99.90
19279;DHT22;9773;47.062;15.446;2024-03-02T06:57:14;8.30;99.90
19279;DHT22;9773;47.062;15.446;2024-03-02T06:59:40;8.30;99.90
19279;DHT22;9773;47.062;15.446;2024-03-02T07:02:05;8.40;99.90
19279;DHT22;9773;47.062;15.446;2024-03-02T07:04:32;8.40;99.90
19279;DHT22;9773;47.062;15.446;2024-03-02T07:06:57;8.50;99.90
19279;DHT22;9773;47.062;15.446;2024-03-02T07:09:23;8.50;99.90
19279;DHT22;9773;47.062;15.446;2024-03-02T07:11:49;8.50;99.90
19279;DHT22;9773;47.062;15.446;2024-03-02T07:14:15;8.60;99.90
19279;DHT22;9773;47.062;15.446;2024-03-02T07:16:40;8.70;99.90
19279;DHT22;9773;47.062;15.446;2024-03-02T07:19:09;8.70;99.90
19279;DHT22;9773;47.062;15.446;2024-03-02T07:21:34;8.80;99.90
19279;DHT22;9773;47.062;15.446;2024-03-02T07:24:00;8.60;99.90
19279;DHT22;9773;47.062;15.446;2024-03-02T07:26:29;8.70;99.90
19279;DHT22;9773;47.062;15.446;2024-03-02T07:28:57;8.80;99.90
19279;DHT22;9773;47.062;15.446;2024-03-02T07:31:23;8.70;99.90
19279;DHT22;9773;47.062;15.446;2024-03-02T07:33:48;8.60;99.90
19279;DHT22;9773;47.062;15.446;2024-03-02T07:36:16;8.70;99.90
19279;DHT22;9773;47.062;15.446;2024-03-02T07:38:43;8.70;99.90
19279;DHT22;9773;47.062;15.446;2024-03-02T07:41:10;8.70;99.90
19279;DHT22;9773;47.062;15.446;2024-03-02T07:43:36;8.80;99.90
19279;DHT22;9773;47.062;15.446;2024-03-02T07:46:02;8.80;99.90
19279;DHT22;9773;47.062;15.446;2024-03-02T07:48:29;8.90;99.90
19279;DHT22;9773;47.062;15.446;2024-03-02T07:50:55;8.90;99.90
19279;DHT22;9773;47.062;15.446;2024-03-02T07:53:21;9.10;99.90
19279;DHT22;9773;47.062;15.446;2024-03-02T07:55:48;9.10;99.90
19279;DHT22;9773;47.062;15.446;2024-03-02T07:58:13;9.30;99.90
19279;DHT22;9773;47.062;15.446;2024-03-02T08:00:40;9.40;99.90
19279;DHT22;9773;47.062;15.446;2024-03-02T08:03:06;9.40;99.90
19279;DHT22;9773;47.062;15.446;2024-03-02T08:05:32;9.60;99.90
19279;DHT22;9773;47.062;15.446;2024-03-02T08:07:58;9.70;99.90
19279;DHT22;9773;47.062;15.446;2024-03-02T08:10:24;9.60;99.90
19279;DHT22;9773;47.062;15.446;2024-03-02T08:12:49;9.70;99.90
19279;DHT22;9773;47.062;15.446;2024-03-02T08:15:15;9.80;99.90
19279;DHT22;9773;47.062;15.446;2024-03-02T08:17:42;9.90;99.90
19279;DHT22;9773;47.062;15.446;2024-03-02T08:20:14;10.00;99.90
19279;DHT22;9773;47.062;15.446;2024-03-02T08:22:43;10.20;99.90
19279;DHT22;9773;47.062;15.446;2024-03-02T08:25:08;10.30;99.90
19279;DHT22;9773;47.062;15.446;2024-03-02T08:27:35;10.40;99.90
19279;DHT22;9773;47.062;15.446;2024-03-02T08:30:01;10.40;99.90
19279;DHT22;9773;47.062;15.446;2024-03-02T08:32:29;10.50;99.90
19279;DHT22;9773;47.062;15.446;2024-03-02T08:34:54;10.50;99.90
19279;DHT22;9773;47.062;15.446;2024-03-02T08:37:20;10.50;99.90
19279;DHT22;9773;47.062;15.446;2024-03-02T08:39:46;10.60;99.90
19279;DHT22;9773;47.062;15.446;2024-03-02T08:42:11;10.60;99.90
19279;DHT22;9773;47.062;15.446;2024-03-02T08:44:37;10.60;99.90
19279;DHT22;9773;47.062;15.446;2024-03-02T08:47:03;10.70;99.90
19279;DHT22;9773;47.062;15.446;2024-03-02T08:49:29;10.50;99.90
19279;DHT22;9773;47.062;15.446;2024-03-02T08:51:55;10.60;99.90
19279;DHT22;9773;47.062;15.446;2024-03-02T08:54:24;10.70;99.90
19279;DHT22;9773;47.062;15.446;2024-03-02T08:56:49;10.70;99.90
19279;DHT22;9773;47.062;15.446;2024-03-02T08:59:16;10.60;99.90
19279;DHT22;9773;47.062;15.446;2024-03-02T09:01:42;10.60;99.90
19279;DHT22;9773;47.062;15.446;2024-03-02T09:04:08;10.70;99.90
19279;DHT22;9773;47.062;15.446;2024-03-02T09:06:34;10.90;99.90
19279;DHT22;9773;47.062;15.446;2024-03-02T09:09:00;11.00;99.90
19279;DHT22;9773;47.062;15.446;2024-03-02T09:11:26;11.10;99.90
19279;DHT22;9773;47.062;15.446;2024-03-02T09:13:52;10.90;99.90
19279;DHT22;9773;47.062;15.446;2024-03-02T09:16:19;11.10;99.90
19279;DHT22;9773;47.062;15.446;2024-03-02T09:18:45;11.10;99.90
19279;DHT22;9773;47.062;15.446;2024-03-02T09:21:10;11.20;99.90
19279;DHT22;9773;47.062;15.446;2024-03-02T09:23:36;11.20;99.90
19279;DHT22;9773;47.062;15.446;2024-03-02T09:26:02;11.40;99.90
19279;DHT22;9773;47.062;15.446;2024-03-02T09:28:28;11.50;99.90
19279;DHT22;9773;47.062;15.446;2024-03-02T09:30:54;11.60;99.90
19279;DHT22;9773;47.062;15.446;2024-03-02T09:33:20;11.60;99.90
19279;DHT22;9773;47.062;15.446;2024-03-02T09:35:46;11.70;99.90
19279;DHT22;9773;47.062;15.446;2024-03-02T09:38:12;11.90;99.90
19279;DHT22;9773;47.062;15.446;2024-03-02T09:40:37;12.00;99.90
19279;DHT22;9773;47.062;15.446;2024-03-02T09:43:03;12.00;99.90
19279;DHT22;9773;47.062;15.446;2024-03-02T09:45:30;12.20;99.90
19279;DHT22;9773;47.062;15.446;2024-03-02T09:47:55;12.40;99.90
19279;DHT22;9773;47.062;15.446;2024-03-02T09:50:21;12.50;99.90
19279;DHT22;9773;47.062;15.446;2024-03-02T09:52:50;12.50;99.90
19279;DHT22;9773;47.062;15.446;2024-03-02T09:55:16;12.30;99.90
19279;DHT22;9773;47.062;15.446;2024-03-02T09:57:45;12.30;99.90
19279;DHT22;9773;47.062;15.446;2024-03-02T10:00:11;12.10;99.90
19279;DHT22;9773;47.062;15.446;2024-03-02T10:02:41;12.10;99.90
19279;DHT22;9773;47.062;15.446;2024-03-02T10:05:10;12.40;99.90
19279;DHT22;9773;47.062;15.446;2024-03-02T10:07:37;12.50;99.90
19279;DHT22;9773;47.062;15.446;2024-03-02T10:10:23;12.70;99.90
19279;DHT22;9773;47.062;15.446;2024-03-02T10:13:20;12.80;99.90
19279;DHT22;9773;47.062;15.446;2024-03-02T10:15:45;12.70;99.90
19279;DHT22;9773;47.062;15.446;2024-03-02T10:18:12;12.70;99.90
19279;DHT22;9773;47.062;15.446;2024-03-02T10:20:39;12.70;99.90
19279;DHT22;9773;47.062;15.446;2024-03-02T10:23:15;12.80;99.90
19279;DHT22;9773;47.062;15.446;2024-03-02T10:25:43;12.70;99.90
19279;DHT22;9773;47.062;15.446;2024-03-02T10:28:09;12.70;99.90
19279;DHT22;9773;47.062;15.446;2024-03-02T10:30:35;12.80;99.90
19279;DHT22;9773;47.062;15.446;2024-03-02T10:33:02;12.70;99.90
19279;DHT22;9773;47.062;15.446;2024-03-02T10:35:28;12.50;99.90
19279;DHT22;9773;47.062;15.446;2024-03-02T10:37:59;12.50;99.90
19279;DHT22;9773;47.062;15.446;2024-03-02T10:40:27;12.50;99.90
19279;DHT22;9773;47.062;15.446;2024-03-02T10:42:52;12.50;99.90
19279;DHT22;9773;47.062;15.446;2024-03-02T10:45:20;12.50;99.90
19279;DHT22;9773;47.062;15.446;2024-03-02T10:47:49;12.20;99.90
19279;DHT22;9773;47.062;15.446;2024-03-02T10:50:15;12.20;99.90
19279;DHT22;9773;47.062;15.446;2024-03-02T10:52:41;12.40;99.90
19279;DHT22;9773;47.062;15.446;2024-03-02T10:55:09;12.20;99.90
19279;DHT22;9773;47.062;15.446;2024-03-02T10:57:47;12.20;99.90
19279;DHT22;9773;47.062;15.446;2024-03-02T11:00:14;12.40;99.90
19279;DHT22;9773;47.062;15.446;2024-03-02T11:02:50;12.50;99.90
19279;DHT22;9773;47.062;15.446;2024-03-02T11:05:25;12.60;99.90
19279;DHT22;9773;47.062;15.446;2024-03-02T11:07:56;12.70;99.90
19279;DHT22;9773;47.062;15.446;2024-03-02T11:10:23;12.60;99.90
19279;DHT22;9773;47.062;15.446;2024-03-02T11:13:02;12.60;99.90
19279;DHT22;9773;47.062;15.446;2024-03-02T11:15:30;12.70;99.90
19279;DHT22;9773;47.062;15.446;2024-03-02T11:17:57;12.70;99.90
19279;DHT22;9773;47.062;15.446;2024-03-02T11:20:23;12.70;99.90
19279;DHT22;9773;47.062;15.446;2024-03-02T11:22:50;12.70;99.90
19279;DHT22;9773;47.062;15.446;2024-03-02T11:25:26;12.70;99.90
19279;DHT22;9773;47.062;15.446;2024-03-02T11:33:08;12.60;99.90
19279;DHT22;9773;47.062;15.446;2024-03-02T11:35:37;12.50;99.90
19279;DHT22;9773;47.062;15.446;2024-03-02T11:38:04;12.40;99.90
19279;DHT22;9773;47.062;15.446;2024-03-02T11:40:30;12.50;99.90
19279;DHT22;9773;47.062;15.446;2024-03-02T11:43:02;12.60;99.90
19279;DHT22;9773;47.062;15.446;2024-03-02T11:45:30;12.70;99.90
19279;DHT22;9773;47.062;15.446;2024-03-02T11:48:00;12.70;99.90
19279;DHT22;9773;47.062;15.446;2024-03-02T11:50:36;12.70;99.90
19279;DHT22;9773;47.062;15.446;2024-03-02T11:53:08;12.70;99.90
19279;DHT22;9773;47.062;15.446;2024-03-02T11:55:38;12.80;99.90
19279;DHT22;9773;47.062;15.446;2024-03-02T11:58:05;12.80;99.90
19279;DHT22;9773;47.062;15.446;2024-03-02T12:00:31;12.90;99.90
19279;DHT22;9773;47.062;15.446;2024-03-02T12:03:05;12.80;99.90
19279;DHT22;9773;47.062;15.446;2024-03-02T12:05:31;12.90;99.90
19279;DHT22;9773;47.062;15.446;2024-03-02T12:08:02;13.00;99.90
19279;DHT22;9773;47.062;15.446;2024-03-02T12:10:28;12.80;99.90
19279;DHT22;9773;47.062;15.446;2024-03-02T12:15:27;12.80;99.90
19279;DHT22;9773;47.062;15.446;2024-03-02T12:17:55;12.60;99.90
19279;DHT22;9773;47.062;15.446;2024-03-02T12:20:21;12.60;99.90
19279;DHT22;9773;47.062;15.446;2024-03-02T12:22:50;12.70;99.90
19279;DHT22;9773;47.062;15.446;2024-03-02T12:25:18;12.70;99.90
19279;DHT22;9773;47.062;15.446;2024-03-02T12:27:44;12.90;99.90
19279;DHT22;9773;47.062;15.446;2024-03-02T12:30:11;13.00;99.90
19279;DHT22;9773;47.062;15.446;2024-03-02T12:32:44;13.10;99.90
19279;DHT22;9773;47.062;15.446;2024-03-02T12:35:10;13.20;99.90
19279;DHT22;9773;47.062;15.446;2024-03-02T12:37:51;13.20;99.90
19279;DHT22;9773;47.062;15.446;2024-03-02T12:40:18;13.30;99.90
19279;DHT22;9773;47.062;15.446;2024-03-02T12:42:45;13.30;99.90
19279;DHT22;9773;47.062;15.446;2024-03-02T12:45:12;13.30;99.90
19279;DHT22;9773;47.062;15.446;2024-03-02T12:47:39;13.40;99.90
19279;DHT22;9773;47.062;15.446;2024-03-02T12:50:06;13.60;99.90
19279;DHT22;9773;47.062;15.446;2024-03-02T12:52:32;13.60;99.90
19279;DHT22;9773;47.062;15.446;2024-03-02T12:55:00;13.70;99.90
19279;DHT22;9773;47.062;15.446;2024-03-02T12:57:27;13.80;99.90
19279;DHT22;9773;47.062;15.446;2024-03-02T12:59:59;13.80;99.90
19279;DHT22;9773;47.062;15.446;2024-03-02T13:02:28;13.90;99.90
19279;DHT22;9773;47.062;15.446;2024-03-02T13:04:54;14.10;99.90
19279;DHT22;9773;47.062;15.446;2024-03-02T13:07:20;14.30;99.90
19279;DHT22;9773;47.062;15.446;2024-03-02T13:09:49;14.30;99.90
19279;DHT22;9773;47.062;15.446;2024-03-02T13:12:16;14.30;99.90
19279;DHT22;9773;47.062;15.446;2024-03-02T13:14:42;14.30;99.90
19279;DHT22;9773;47.062;15.446;2024-03-02T13:17:09;14.20;99.90
19279;DHT22;9773;47.062;15.446;2024-03-02T13:19:35;14.30;99.90
19279;DHT22;9773;47.062;15.446;2024-03-02T13:22:01;14.10;99.90
19279;DHT22;9773;47.062;15.446;2024-03-02T13:24:30;13.90;99.90
19279;DHT22;9773;47.062;15.446;2024-03-02T13:26:56;14.10;99.90
19279;DHT22;9773;47.062;15.446;2024-03-02T13:29:24;14.20;99.90
19279;DHT22;9773;47.062;15.446;2024-03-02T13:31:50;14.30;99.90
19279;DHT22;9773;47.062;15.446;2024-03-02T13:34:16;14.40;99.90
19279;DHT22;9773;47.062;15.446;2024-03-02T13:36:41;14.40;99.90
19279;DHT22;9773;47.062;15.446;2024-03-02T13:39:07;14.50;99.90
19279;DHT22;9773;47.062;15.446;2024-03-02T13:41:36;14.50;99.90
19279;DHT22;9773;47.062;15.446;2024-03-02T13:44:02;14.40;99.90
19279;DHT22;9773;47.062;15.446;2024-03-02T13:46:28;14.30;99.90
19279;DHT22;9773;47.062;15.446;2024-03-02T13:48:54;14.40;99.90
19279;DHT22;9773;47.062;15.446;2024-03-02T13:51:21;14.40;99.90
19279;DHT22;9773;47.062;15.446;2024-03-02T13:53:46;14.40;99.90
19279;DHT22;9773;47.062;15.446;2024-03-02T13:56:12;14.30;99.90
19279;DHT22;9773;47.062;15.446;2024-03-02T13:58:38;14.40;99.90
19279;DHT22;9773;47.062;15.446;2024-03-02T14:01:05;14.60;99.90
19279;DHT22;9773;47.062;15.446;2024-03-02T14:03:31;14.60;99.90
19279;DHT22;9773;47.062;15.446;2024-03-02T14:05:57;14.60;99.90
19279;DHT22;9773;47.062;15.446;2024-03-02T14:08:23;14.60;99.90
19279;DHT22;9773;47.062;15.446;2024-03-02T14:10:49;14.50;99.90
19279;DHT22;9773;47.062;15.446;2024-03-02T14:13:15;14.50;99.90
19279;DHT22;9773;47.062;15.446;2024-03-02T14:15:41;14.50;99.90
19279;DHT22;9773;47.062;15.446;2024-03-02T14:18:07;14.50;99.90
19279;DHT22;9773;47.062;15.446;2024-03-02T14:20:36;14.50;99.90
19279;DHT22;9773;47.062;15.446;2024-03-02T14:23:03;14.40;99.90
19279;DHT22;9773;47.062;15.446;2024-03-02T14:25:30;14.40;99.90
19279;DHT22;9773;47.062;15.446;2024-03-02T14:27:59;14.30;99.90
19279;DHT22;9773;47.062;15.446;2024-03-02T14:30:25;14.30;99.90
19279;DHT22;9773;47.062;15.446;2024-03-02T14:32:51;14.30;99.90
19279;DHT22;9773;47.062;15.446;2024-03-02T14:35:17;14.20;99.90
19279;DHT22;9773;47.062;15.446;2024-03-02T14:37:44;14.20;99.90
19279;DHT22;9773;47.062;15.446;2024-03-02T14:40:10;14.10;99.90
19279;DHT22;9773;47.062;15.446;2024-03-02T14:42:37;14.10;99.90
19279;DHT22;9773;47.062;15.446;2024-03-02T14:45:03;14.00;99.90
19279;DHT22;9773;47.062;15.446;2024-03-02T14:47:32;14.00;99.90
19279;DHT22;9773;47.062;15.446;2024-03-02T14:49:59;14.00;99.90
19279;DHT22;9773;47.062;15.446;2024-03-02T14:52:25;14.00;99.90
19279;DHT22;9773;47.062;15.446;2024-03-02T14:54:50;13.90;99.90
19279;DHT22;9773;47.062;15.446;2024-03-02T14:57:16;13.80;99.90
19279;DHT22;9773;47.062;15.446;2024-03-02T14:59:42;13.80;99.90
19279;DHT22;9773;47.062;15.446;2024-03-02T15:02:08;13.70;99.90
19279;DHT22;9773;47.062;15.446;2024-03-02T15:04:34;13.60;99.90
19279;DHT22;9773;47.062;15.446;2024-03-02T15:07:00;13.50;99.90
19279;DHT22;9773;47.062;15.446;2024-03-02T15:09:26;13.40;99.90
19279;DHT22;9773;47.062;15.446;2024-03-02T15:11:53;13.50;99.90
19279;DHT22;9773;47.062;15.446;2024-03-02T15:14:41;13.40;99.90
19279;DHT22;9773;47.062;15.446;2024-03-02T15:17:41;13.40;99.90
19279;DHT22;9773;47.062;15.446;2024-03-02T15:20:31;13.30;99.90
19279;DHT22;9773;47.062;15.446;2024-03-02T15:23:27;13.40;99.90
19279;DHT22;9773;47.062;15.446;2024-03-02T15:26:18;13.40;99.90
19279;DHT22;9773;47.062;15.446;2024-03-02T15:28:50;13.30;99.90
19279;DHT22;9773;47.062;15.446;2024-03-02T15:31:18;13.30;99.90
19279;DHT22;9773;47.062;15.446;2024-03-02T15:33:44;13.30;99.90
19279;DHT22;9773;47.062;15.446;2024-03-02T15:36:10;13.40;99.90
19279;DHT22;9773;47.062;15.446;2024-03-02T15:38:36;13.40;99.90
19279;DHT22;9773;47.062;15.446;2024-03-02T15:41:04;13.40;99.90
19279;DHT22;9773;47.062;15.446;2024-03-02T15:43:29;13.40;99.90
19279;DHT22;9773;47.062;15.446;2024-03-02T15:45:56;13.30;99.90
19279;DHT22;9773;47.062;15.446;2024-03-02T15:48:22;13.70;99.90
19279;DHT22;9773;47.062;15.446;2024-03-02T15:50:49;13.30;99.90
19279;DHT22;9773;47.062;15.446;2024-03-02T15:53:16;13.30;99.90